createdAt,value
2018-03-20T00:01:12.045Z,8.10
2018-03-20T00:03:42.082Z,9.23
2018-03-20T00:06:12.072Z,9.57
2018-03-20T00:08:41.318Z,9.10
2018-03-20T00:11:11.270Z,8.10
2018-03-20T00:13:40.500Z,9.03
2018-03-20T00:16:09.699Z,10.17
2018-03-20T00:18:39.695Z,9.60
2018-03-20T00:21:08.987Z,9.03
2018-03-20T00:23:38.231Z,10.13
2018-03-20T00:26:08.227Z,10.07
2018-03-20T00:28:37.454Z,9.43
2018-03-20T00:31:06.822Z,8.47
2018-03-20T00:33:36.067Z,10.07
2018-03-20T00:36:05.357Z,10.23
2018-03-20T00:38:34.611Z,9.80
2018-03-20T00:41:03.786Z,8.97
2018-03-20T00:43:33.035Z,9.67
2018-03-20T00:46:02.451Z,8.17
2018-03-20T00:48:32.398Z,9.37
2018-03-20T00:51:01.641Z,8.97
2018-03-20T00:53:31.638Z,10.77
2018-03-20T00:56:00.979Z,10.40
2018-03-20T00:58:30.238Z,10.13
2018-03-20T01:00:59.597Z,11.10
2018-03-20T01:03:29.566Z,8.90
2018-03-20T01:05:58.862Z,10.13
2018-03-20T01:08:29.059Z,9.73
2018-03-20T01:10:58.426Z,9.13
2018-03-20T01:13:27.627Z,9.87
2018-03-20T01:15:56.831Z,9.67
2018-03-20T01:18:26.123Z,10.00
2018-03-20T01:20:55.347Z,9.17
2018-03-20T01:23:24.601Z,10.07
2018-03-20T01:25:53.826Z,9.90
2018-03-20T01:28:23.078Z,9.50
2018-03-20T01:30:53.097Z,9.80
2018-03-20T01:33:22.524Z,9.60
2018-03-20T01:35:51.751Z,10.63
2018-03-20T01:38:21.057Z,10.23
2018-03-20T01:40:50.278Z,10.10
2018-03-20T01:43:19.535Z,11.63
2018-03-20T01:45:48.744Z,11.50
2018-03-20T01:48:17.995Z,10.00
2018-03-20T01:50:47.976Z,11.17
2018-03-20T01:53:20.200Z,11.60
2018-03-20T01:55:49.434Z,9.93
2018-03-20T01:58:18.686Z,11.10
2018-03-20T02:00:47.911Z,11.07
2018-03-20T02:03:17.158Z,9.57
2018-03-20T02:05:46.392Z,10.60
2018-03-20T02:08:15.635Z,10.33
2018-03-20T02:10:44.838Z,10.13
2018-03-20T02:13:14.816Z,10.93
2018-03-20T02:15:44.111Z,9.83
2018-03-20T02:18:13.350Z,9.97
2018-03-20T02:20:42.568Z,9.30
2018-03-20T02:23:12.589Z,9.63
2018-03-20T02:25:42.602Z,10.30
2018-03-20T02:28:12.751Z,9.00
2018-03-20T02:30:41.982Z,9.67
2018-03-20T02:33:11.219Z,10.77
2018-03-20T02:35:41.346Z,9.33
2018-03-20T02:38:10.594Z,9.87
2018-03-20T02:40:39.823Z,9.07
2018-03-20T02:43:09.042Z,8.37
2018-03-20T02:45:38.267Z,8.90
2018-03-20T02:48:07.555Z,9.30
2018-03-20T02:50:36.816Z,8.20
2018-03-20T02:53:06.989Z,10.13
2018-03-20T02:55:36.246Z,10.20
2018-03-20T02:58:06.226Z,8.13
2018-03-20T03:00:35.652Z,8.53
2018-03-20T03:03:05.638Z,8.30
2018-03-20T03:05:34.894Z,7.93
2018-03-20T03:08:04.170Z,8.40
2018-03-20T03:10:33.390Z,8.13
2018-03-20T03:13:02.610Z,8.00
2018-03-20T03:15:31.830Z,7.73
2018-03-20T03:18:01.086Z,7.30
2018-03-20T03:20:30.345Z,7.63
2018-03-20T03:22:59.578Z,8.30
2018-03-20T03:25:28.907Z,8.30
2018-03-20T03:27:58.248Z,7.77
2018-03-20T03:30:27.480Z,8.57
2018-03-20T03:32:57.469Z,8.80
2018-03-20T03:35:26.658Z,7.90
2018-03-20T03:37:55.899Z,7.43
2018-03-20T03:40:25.085Z,7.67
2018-03-20T03:42:54.398Z,7.60
2018-03-20T03:45:23.631Z,7.43
2018-03-20T03:47:53.143Z,6.80
2018-03-20T03:50:22.376Z,7.87
2018-03-20T03:52:52.378Z,8.17
2018-03-20T03:55:22.361Z,8.20
2018-03-20T03:57:51.586Z,8.73
2018-03-20T04:00:20.781Z,7.17
2018-03-20T04:02:50.994Z,8.37
2018-03-20T04:05:20.219Z,9.70
2018-03-20T04:07:50.388Z,8.63
2018-03-20T04:10:19.586Z,9.20
2018-03-20T04:12:48.824Z,7.90
2018-03-20T04:15:18.070Z,8.90
2018-03-20T04:17:47.296Z,9.40
2018-03-20T04:20:16.577Z,9.87
2018-03-20T04:22:45.763Z,9.10
2018-03-20T04:25:15.011Z,10.27
2018-03-20T04:27:45.229Z,10.33
2018-03-20T04:30:14.443Z,10.33
2018-03-20T04:32:44.463Z,11.80
2018-03-20T04:35:13.709Z,11.10
2018-03-20T04:37:42.943Z,11.17
2018-03-20T04:40:12.951Z,11.07
2018-03-20T04:42:42.354Z,10.90
2018-03-20T04:45:11.613Z,11.87
2018-03-20T04:47:40.915Z,11.30
2018-03-20T04:50:10.153Z,13.40
2018-03-20T04:52:39.415Z,11.57
2018-03-20T04:55:08.670Z,13.03
2018-03-20T04:57:38.724Z,11.63
2018-03-20T05:00:08.296Z,12.47
2018-03-20T05:02:38.274Z,13.00
2018-03-20T05:05:07.505Z,13.33
2018-03-20T05:07:37.643Z,13.23
2018-03-20T05:10:06.875Z,13.70
2018-03-20T05:12:36.142Z,11.67
2018-03-20T05:15:05.347Z,12.93
2018-03-20T05:17:34.615Z,14.07
2018-03-20T05:33:31.130Z,12.90
2018-03-20T05:36:01.122Z,15.27
2018-03-20T05:38:30.361Z,15.60
2018-03-20T05:40:59.620Z,15.13
2018-03-20T05:43:28.902Z,15.90
2018-03-20T05:45:58.124Z,15.40
2018-03-20T05:48:29.373Z,19.30
2018-03-20T05:54:00.093Z,18.97
2018-03-20T05:56:29.299Z,17.03
2018-03-20T05:58:58.558Z,18.63
2018-03-20T06:01:27.797Z,19.27
2018-03-20T06:03:57.015Z,21.50
2018-03-20T06:06:27.283Z,22.30
2018-03-20T06:08:56.523Z,19.97
2018-03-20T06:11:25.744Z,19.17
2018-03-20T06:13:55.873Z,19.77
2018-03-20T06:16:25.064Z,20.27
2018-03-20T06:18:55.060Z,18.60
2018-03-20T06:21:24.266Z,20.30
2018-03-20T06:23:54.272Z,19.70
2018-03-20T06:26:23.556Z,18.87
2018-03-20T06:28:52.859Z,20.20
2018-03-20T06:31:23.599Z,18.47
2018-03-20T06:33:52.840Z,20.90
2018-03-20T06:36:22.078Z,20.90
2018-03-20T06:38:51.325Z,21.77
2018-03-20T06:41:20.563Z,21.13
2018-03-20T06:43:49.767Z,20.73
2018-03-20T06:46:19.042Z,21.10
2018-03-20T06:48:48.990Z,19.63
2018-03-20T06:51:18.182Z,21.83
2018-03-20T06:53:47.391Z,21.57
2018-03-20T06:56:16.642Z,20.70
2018-03-20T06:58:46.626Z,22.60
2018-03-20T07:01:15.879Z,21.83
2018-03-20T07:03:45.860Z,21.10
2018-03-20T07:06:15.842Z,22.77
2018-03-20T07:08:45.289Z,19.73
2018-03-20T07:11:14.520Z,20.53
2018-03-20T07:13:44.059Z,22.80
2018-03-20T07:16:13.284Z,20.60
2018-03-20T07:18:42.515Z,22.27
2018-03-20T07:34:11.767Z,19.27
2018-03-20T07:36:40.987Z,19.00
2018-03-20T07:39:10.218Z,18.40
2018-03-20T07:41:39.444Z,17.57
2018-03-20T07:44:09.649Z,19.63
2018-03-20T07:46:38.959Z,20.77
2018-03-20T07:49:09.225Z,18.13
2018-03-20T07:51:38.450Z,19.60
2018-03-20T07:54:07.700Z,19.47
2018-03-20T07:56:36.956Z,19.60
2018-03-20T07:59:06.168Z,21.10
2018-03-20T08:01:35.427Z,19.80
2018-03-20T08:04:04.623Z,20.57
2018-03-20T08:06:33.827Z,18.10
2018-03-20T08:09:03.029Z,17.43
2018-03-20T08:11:32.284Z,17.07
2018-03-20T08:14:02.475Z,15.53
2018-03-20T08:16:33.235Z,17.90
2018-03-20T08:19:02.526Z,17.47
2018-03-20T08:21:31.671Z,16.27
2018-03-20T08:24:00.894Z,13.17
2018-03-20T08:26:30.114Z,13.47
2018-03-20T08:29:00.080Z,11.70
2018-03-20T08:31:29.332Z,12.27
2018-03-20T08:33:59.302Z,11.70
2018-03-20T08:36:28.522Z,12.33
2018-03-20T08:38:57.754Z,10.90
2018-03-20T08:41:27.330Z,10.00
2018-03-20T08:43:56.534Z,8.23
2018-03-20T08:46:26.517Z,9.77
2018-03-20T08:48:55.802Z,8.10
2018-03-20T08:51:25.036Z,6.80
2018-03-20T08:53:54.346Z,6.83
2018-03-20T08:56:23.636Z,6.80
2018-03-20T08:58:52.856Z,6.07
2018-03-20T09:01:22.053Z,5.83
2018-03-20T09:03:51.267Z,6.43
2018-03-20T09:06:20.505Z,6.77
2018-03-20T09:08:49.776Z,5.80
2018-03-20T09:11:19.759Z,6.93
2018-03-20T09:13:48.984Z,6.43
2018-03-20T09:16:18.187Z,6.53
2018-03-20T09:18:47.395Z,6.13
2018-03-20T09:21:16.682Z,6.50
2018-03-20T09:23:45.898Z,7.17
2018-03-20T09:26:15.573Z,6.00
2018-03-20T09:28:44.836Z,6.63
2018-03-20T09:31:14.041Z,5.97
2018-03-20T09:33:43.250Z,6.13
2018-03-20T09:36:13.226Z,6.57
2018-03-20T09:38:42.474Z,6.00
2018-03-20T09:41:11.665Z,6.43
2018-03-20T09:43:41.671Z,7.23
2018-03-20T09:46:10.878Z,6.40
2018-03-20T09:48:41.706Z,5.80
2018-03-20T09:51:11.210Z,6.37
2018-03-20T09:53:40.429Z,7.27
2018-03-20T09:56:09.743Z,6.60
2018-03-20T09:58:38.944Z,5.30
2018-03-20T10:01:08.192Z,5.60
2018-03-20T10:03:37.500Z,5.73
2018-03-20T10:06:06.751Z,5.23
2018-03-20T10:08:35.935Z,5.50
2018-03-20T10:11:05.159Z,6.30
2018-03-20T10:13:34.388Z,4.47
2018-03-20T10:16:03.591Z,4.30
2018-03-20T10:18:33.705Z,4.67
2018-03-20T10:21:02.926Z,4.40
2018-03-20T10:23:32.114Z,3.67
2018-03-20T10:26:02.081Z,3.80
2018-03-20T10:28:31.517Z,4.40
2018-03-20T10:31:01.493Z,3.80
2018-03-20T10:33:30.710Z,3.53
2018-03-20T10:36:00.242Z,3.63
2018-03-20T10:38:29.479Z,4.23
2018-03-20T10:40:58.711Z,3.30
2018-03-20T10:43:27.932Z,2.67
2018-03-20T10:45:57.143Z,3.20
2018-03-20T10:48:26.310Z,3.10
2018-03-20T10:50:55.702Z,2.00
2018-03-20T10:53:24.964Z,2.10
2018-03-20T10:55:54.178Z,2.30
2018-03-20T10:58:23.393Z,1.90
2018-03-20T11:00:52.555Z,1.47
2018-03-20T11:03:21.819Z,1.83
2018-03-20T11:05:51.043Z,1.93
2018-03-20T11:08:20.319Z,2.00
2018-03-20T11:10:50.274Z,1.60
2018-03-20T11:13:19.496Z,1.57
2018-03-20T11:15:48.674Z,1.30
2018-03-20T11:18:17.891Z,1.70
2018-03-20T11:20:47.096Z,1.27
2018-03-20T11:23:16.311Z,1.20
2018-03-20T11:25:46.275Z,1.97
2018-03-20T11:28:16.422Z,1.27
2018-03-20T11:30:45.599Z,1.30
2018-03-20T11:33:14.844Z,1.30
2018-03-20T11:35:44.035Z,0.97
2018-03-20T11:38:13.276Z,1.03
2018-03-20T11:40:42.498Z,1.23
2018-03-20T11:43:11.694Z,1.00
2018-03-20T11:45:40.879Z,1.13
2018-03-20T11:48:10.876Z,1.20
2018-03-20T11:50:40.822Z,1.07
2018-03-20T11:53:10.030Z,1.13
2018-03-20T11:55:39.227Z,0.90
2018-03-20T11:58:08.435Z,1.27
2018-03-20T12:00:37.634Z,1.50
2018-03-20T12:03:06.970Z,1.17
2018-03-20T12:05:36.202Z,1.20
2018-03-20T12:08:23.134Z,1.20
2018-03-20T12:10:52.347Z,1.10
2018-03-20T12:13:22.485Z,1.27
2018-03-20T12:15:51.687Z,0.97
2018-03-20T12:18:21.651Z,1.10
2018-03-20T12:20:50.879Z,0.93
2018-03-20T12:23:20.055Z,1.20
2018-03-20T12:25:49.297Z,1.00
2018-03-20T12:28:19.274Z,1.20
2018-03-20T12:30:48.479Z,1.30
2018-03-20T12:33:17.705Z,1.87
2018-03-20T12:35:46.959Z,1.00
2018-03-20T12:38:16.158Z,1.00
2018-03-20T12:40:46.162Z,1.40
2018-03-20T12:43:15.383Z,1.23
2018-03-20T12:45:44.559Z,1.10
2018-03-20T12:48:13.807Z,1.43
2018-03-20T12:50:43.771Z,1.27
2018-03-20T12:53:12.993Z,0.97
2018-03-20T12:55:42.148Z,1.00
2018-03-20T12:58:11.354Z,1.57
2018-03-20T13:00:40.552Z,0.70
2018-03-20T13:03:09.814Z,0.90
2018-03-20T13:05:39.790Z,1.00
2018-03-20T13:08:08.986Z,1.03
2018-03-20T13:10:38.226Z,0.90
2018-03-20T13:13:08.228Z,1.10
2018-03-20T13:15:37.471Z,0.90
2018-03-20T13:18:06.666Z,1.10
2018-03-20T13:20:35.967Z,1.40
2018-03-20T13:23:05.368Z,0.90
2018-03-20T13:25:35.358Z,0.80
2018-03-20T13:28:05.335Z,1.00
2018-03-20T13:30:34.568Z,1.07
2018-03-20T13:33:04.795Z,1.33
2018-03-20T13:35:41.551Z,0.70
2018-03-20T13:38:11.547Z,0.80
2018-03-20T13:40:40.755Z,0.97
2018-03-20T13:43:09.980Z,1.23
2018-03-20T13:45:40.032Z,0.93
2018-03-20T13:48:09.254Z,0.90
2018-03-20T13:50:38.478Z,0.87
2018-03-20T13:53:07.693Z,0.90
2018-03-20T13:55:36.932Z,1.07
2018-03-20T13:58:06.143Z,1.17
2018-03-20T14:00:35.347Z,1.07
2018-03-20T14:03:05.283Z,0.80
2018-03-20T14:05:35.258Z,1.00
2018-03-20T14:08:04.491Z,0.90
2018-03-20T14:10:33.689Z,0.67
2018-03-20T14:13:03.668Z,0.80
2018-03-20T14:15:32.898Z,0.70
2018-03-20T14:18:02.908Z,0.73
2018-03-20T14:20:32.119Z,0.90
2018-03-20T14:23:02.453Z,1.27
2018-03-20T14:25:32.426Z,0.67
2018-03-20T14:28:01.625Z,0.90
2018-03-20T14:30:30.826Z,0.90
2018-03-20T14:33:00.335Z,0.90
2018-03-20T14:35:29.547Z,1.07
2018-03-20T14:37:58.743Z,0.90
2018-03-20T14:40:27.955Z,0.90
2018-03-20T14:42:57.947Z,0.67
2018-03-20T14:45:27.240Z,0.90
2018-03-20T14:47:56.488Z,0.80
2018-03-20T14:50:25.696Z,0.90
2018-03-20T14:52:54.910Z,0.70
2018-03-20T14:55:24.112Z,1.07
2018-03-20T14:57:53.347Z,1.30
2018-03-20T15:00:22.598Z,1.03
2018-03-20T15:02:51.803Z,0.90
2018-03-20T15:05:21.042Z,0.80
2018-03-20T15:07:50.470Z,0.80
2018-03-20T15:10:19.679Z,1.13
2018-03-20T15:12:48.902Z,1.20
2018-03-20T15:15:18.138Z,0.73
2018-03-20T15:17:47.382Z,0.90
2018-03-20T15:20:16.601Z,0.80
2018-03-20T15:22:45.839Z,0.90
2018-03-20T15:25:15.822Z,0.70
2018-03-20T15:27:45.070Z,1.23
2018-03-20T15:30:15.112Z,0.93
2018-03-20T15:32:44.309Z,1.20
2018-03-20T15:35:13.519Z,1.60
2018-03-20T15:37:42.723Z,1.10
2018-03-20T15:40:11.950Z,1.07
2018-03-20T15:42:41.923Z,1.00
2018-03-20T15:45:11.186Z,0.80
2018-03-20T15:47:40.435Z,0.90
2018-03-20T15:50:09.627Z,1.10
2018-03-20T15:52:39.261Z,0.80
2018-03-20T15:55:09.261Z,0.80
2018-03-20T15:57:38.490Z,0.90
2018-03-20T16:00:08.708Z,0.70
2018-03-20T16:02:38.756Z,1.10
2018-03-20T16:05:08.914Z,1.17
2018-03-20T16:07:38.151Z,1.20
2018-03-20T16:10:08.125Z,1.00
2018-03-20T16:12:37.395Z,1.50
2018-03-20T16:15:06.610Z,1.20
2018-03-20T16:17:36.040Z,1.00
2018-03-20T16:20:05.443Z,0.70
2018-03-20T16:22:36.278Z,1.20
2018-03-20T16:25:06.277Z,1.47
2018-03-20T16:27:35.481Z,1.20
2018-03-20T16:30:04.665Z,1.00
2018-03-20T16:32:34.004Z,0.90
2018-03-20T16:35:04.003Z,1.13
2018-03-20T16:37:34.020Z,1.00
2018-03-20T16:40:03.296Z,1.30
2018-03-20T16:42:32.510Z,1.73
2018-03-20T16:45:01.907Z,1.47
2018-03-20T16:47:31.114Z,1.23
2018-03-20T16:50:01.864Z,1.20
2018-03-20T16:52:31.995Z,1.30
2018-03-20T16:55:01.400Z,1.30
2018-03-20T16:57:31.355Z,1.63
2018-03-20T17:00:00.737Z,1.30
2018-03-20T17:02:29.983Z,1.30
2018-03-20T17:04:59.214Z,2.07
2018-03-20T17:07:29.254Z,1.93
2018-03-20T17:09:58.461Z,1.90
2018-03-20T17:12:27.763Z,1.40
2018-03-20T17:14:57.695Z,1.30
2018-03-20T17:17:26.925Z,1.37
2018-03-20T17:19:56.385Z,1.50
2018-03-20T17:22:25.617Z,1.80
2018-03-20T17:24:54.818Z,1.73
2018-03-20T17:27:24.031Z,1.60
2018-03-20T17:29:54.010Z,2.13
2018-03-20T17:32:23.259Z,2.10
2018-03-20T17:34:52.477Z,1.67
2018-03-20T17:37:21.674Z,1.60
2018-03-20T17:39:50.930Z,2.10
2018-03-20T17:42:20.261Z,2.13
2018-03-20T17:44:49.507Z,2.27
2018-03-20T17:47:18.754Z,1.40
2018-03-20T17:49:47.981Z,1.50
2018-03-20T17:52:17.218Z,2.37
2018-03-20T17:54:46.506Z,2.10
2018-03-20T17:57:15.752Z,2.47
2018-03-20T17:59:44.968Z,2.67
2018-03-20T18:02:14.157Z,1.60
2018-03-20T18:04:43.377Z,1.30
2018-03-20T18:07:12.622Z,1.70
2018-03-20T18:09:42.631Z,2.43
2018-03-20T18:12:11.831Z,1.93
2018-03-20T18:14:41.848Z,1.90
2018-03-20T18:17:11.871Z,1.83
2018-03-20T18:19:41.829Z,2.23
2018-03-20T18:22:11.042Z,3.00
2018-03-20T18:24:41.794Z,2.43
2018-03-20T18:27:12.007Z,2.53
2018-03-20T18:29:42.755Z,2.60
2018-03-20T18:32:12.708Z,2.50
2018-03-20T18:34:42.719Z,2.57
2018-03-20T18:37:11.885Z,2.20
2018-03-20T18:39:41.861Z,2.40
2018-03-20T18:42:11.071Z,1.90
2018-03-20T18:44:40.303Z,2.33
2018-03-20T18:47:10.274Z,2.17
2018-03-20T18:49:39.691Z,5.60
2018-03-20T18:52:08.954Z,5.20
2018-03-20T18:54:39.016Z,9.80
2018-03-20T18:57:08.666Z,6.40
2018-03-20T18:59:37.906Z,3.73
2018-03-20T19:02:07.173Z,2.57
2018-03-20T19:04:36.377Z,3.97
2018-03-20T19:07:06.322Z,4.50
2018-03-20T19:09:36.381Z,2.20
2018-03-20T19:12:06.369Z,2.30
2018-03-20T19:14:36.388Z,3.63
2018-03-20T19:17:05.621Z,3.60
2018-03-20T19:19:35.563Z,3.67
2018-03-20T19:22:04.824Z,2.87
2018-03-20T19:24:34.883Z,2.77
2018-03-20T19:27:04.110Z,3.50
2018-03-20T19:29:33.503Z,4.10
2018-03-20T19:32:03.463Z,3.80
2018-03-20T19:34:33.056Z,3.03
2018-03-20T19:37:04.124Z,3.13
2018-03-20T19:39:33.372Z,2.70
2018-03-20T19:42:02.581Z,3.80
2018-03-20T19:44:32.350Z,4.53
2018-03-20T19:47:01.568Z,5.17
2018-03-20T19:49:30.832Z,4.43
2018-03-20T19:52:00.058Z,4.10
2018-03-20T19:54:29.283Z,4.17
2018-03-20T19:56:58.519Z,4.23
2018-03-20T19:59:27.770Z,3.40
2018-03-20T20:01:57.940Z,2.93
2018-03-20T20:04:27.220Z,3.80
2018-03-20T20:06:56.433Z,3.77
2018-03-20T20:09:25.686Z,2.97
2018-03-20T20:11:54.881Z,3.57
2018-03-20T20:14:24.989Z,4.40
2018-03-20T20:16:54.632Z,3.33
2018-03-20T20:19:23.866Z,3.30
2018-03-20T20:21:53.128Z,2.93
2018-03-20T20:24:22.326Z,3.23
2018-03-20T20:26:51.541Z,3.17
2018-03-20T20:29:20.769Z,2.87
2018-03-20T20:31:50.015Z,2.77
2018-03-20T20:34:19.253Z,2.13
2018-03-20T20:36:48.500Z,2.97
2018-03-20T20:39:17.726Z,2.20
2018-03-20T20:41:47.780Z,2.97
2018-03-20T20:44:18.218Z,3.00
2018-03-20T20:46:47.452Z,2.33
2018-03-20T20:49:16.686Z,2.50
2018-03-20T20:51:45.934Z,2.70
2018-03-20T20:54:15.954Z,2.63
2018-03-20T20:56:45.953Z,3.27
2018-03-20T20:59:15.195Z,2.77
2018-03-20T21:01:44.378Z,2.57
2018-03-20T21:04:13.670Z,2.60
2018-03-20T21:06:42.908Z,2.97
2018-03-20T21:09:12.246Z,3.23
2018-03-20T21:11:41.487Z,2.10
2018-03-20T21:14:10.717Z,2.37
2018-03-20T21:16:40.739Z,2.97
2018-03-20T21:19:09.982Z,3.50
2018-03-20T21:21:39.962Z,3.10
2018-03-20T21:24:10.098Z,3.67
2018-03-20T21:26:39.308Z,2.70
2018-03-20T21:29:09.297Z,3.10
2018-03-20T21:31:38.531Z,2.83
2018-03-20T21:34:08.574Z,3.07
2018-03-20T21:36:37.798Z,2.47
2018-03-20T21:39:07.024Z,2.80
2018-03-20T21:41:36.360Z,3.30
2018-03-20T21:44:05.588Z,4.13
2018-03-20T21:46:34.835Z,2.93
2018-03-20T21:49:04.845Z,2.70
2018-03-20T21:51:34.923Z,3.33
2018-03-20T21:54:04.441Z,3.40
2018-03-20T21:56:33.612Z,3.47
2018-03-20T21:59:02.831Z,3.60
2018-03-20T22:01:32.082Z,3.43
2018-03-20T22:04:01.384Z,4.00
2018-03-20T22:06:30.683Z,4.27
2018-03-20T22:08:59.890Z,3.53
2018-03-20T22:11:29.103Z,2.90
2018-03-20T22:13:58.375Z,4.23
2018-03-20T22:16:27.612Z,3.97
2018-03-20T22:18:56.829Z,3.33
2018-03-20T22:21:26.066Z,4.07
2018-03-20T22:23:55.270Z,3.53
2018-03-20T22:26:24.487Z,3.60
2018-03-20T22:28:53.728Z,4.03
2018-03-20T22:31:22.946Z,3.87
2018-03-20T22:33:52.925Z,2.60
2018-03-20T22:36:22.138Z,3.30
2018-03-20T22:38:52.291Z,3.50
2018-03-20T22:41:21.511Z,3.67
2018-03-20T22:43:50.777Z,4.20
2018-03-20T22:46:20.988Z,3.37
2018-03-20T22:48:50.970Z,3.83
2018-03-20T22:51:20.346Z,3.80
2018-03-20T22:53:50.293Z,3.50
2018-03-20T22:56:19.555Z,3.83
2018-03-20T22:58:48.977Z,3.70
2018-03-20T23:01:18.334Z,4.63
2018-03-20T23:03:47.578Z,3.40
2018-03-20T23:06:16.810Z,2.90
2018-03-20T23:08:46.782Z,3.47
2018-03-20T23:11:16.038Z,3.73
2018-03-20T23:13:45.238Z,3.40
2018-03-20T23:16:15.206Z,3.17
2018-03-20T23:18:44.423Z,3.60
2018-03-20T23:21:13.620Z,3.73
2018-03-20T23:23:43.640Z,4.17
2018-03-20T23:26:12.824Z,3.80
2018-03-20T23:28:42.819Z,4.30
2018-03-20T23:31:12.042Z,3.30
2018-03-20T23:33:41.283Z,3.30
2018-03-20T23:36:10.494Z,3.57
2018-03-20T23:38:39.715Z,3.77
2018-03-20T23:41:08.924Z,4.17
2018-03-20T23:43:38.118Z,4.40
2018-03-20T23:46:07.357Z,3.90
2018-03-20T23:48:37.319Z,5.10
2018-03-20T23:51:06.544Z,6.43
2018-03-20T23:53:35.801Z,8.30
2018-03-20T23:56:05.023Z,6.50
2018-03-20T23:58:35.770Z,5.47
